sensor_id;sensor_type;location;lat;lon;timestamp;pressure;altitude;pressure_sealevel;temperature;humidity
54194;BME280;40102;50.906;6.972;2024-01-07T00:02:22;100828.16;;;5.86;81.20
54194;BME280;40102;50.906;6.972;2024-01-07T00:04:47;100825.47;;;5.88;81.16
54194;BME280;40102;50.906;6.972;2024-01-07T00:07:13;100833.28;;;5.93;81.15
54194;BME280;40102;50.906;6.972;2024-01-07T00:09:38;100845.69;;;5.92;80.92
54194;BME280;40102;50.906;6.972;2024-01-07T00:12:04;100834.44;;;5.84;80.83
54194;BME280;40102;50.906;6.972;2024-01-07T00:14:29;100850.22;;;5.89;80.92
54194;BME280;40102;50.906;6.972;2024-01-07T00:16:54;100838.03;;;5.83;80.76
54194;BME280;40102;50.906;6.972;2024-01-07T00:19:20;100844.19;;;5.83;80.87
54194;BME280;40102;50.906;6.972;2024-01-07T00:21:45;100843.22;;;5.86;80.97
54194;BME280;40102;50.906;6.972;2024-01-07T00:24:10;100842.50;;;5.81;80.95
54194;BME280;40102;50.906;6.972;2024-01-07T00:26:36;100854.63;;;5.90;80.98
54194;BME280;40102;50.906;6.972;2024-01-07T00:29:01;100847.63;;;5.87;81.00
54194;BME280;40102;50.906;6.972;2024-01-07T00:31:26;100852.94;;;5.87;81.03
54194;BME280;40102;50.906;6.972;2024-01-07T00:33:51;100853.78;;;5.89;81.06
54194;BME280;40102;50.906;6.972;2024-01-07T00:36:17;100834.56;;;5.81;81.03
54194;BME280;40102;50.906;6.972;2024-01-07T00:38:42;100849.41;;;5.86;80.97
54194;BME280;40102;50.906;6.972;2024-01-07T00:41:07;100831.28;;;5.73;81.01
54194;BME280;40102;50.906;6.972;2024-01-07T00:43:33;100861.75;;;5.89;80.71
54194;BME280;40102;50.906;6.972;2024-01-07T00:45:58;100853.78;;;5.88;81.07
54194;BME280;40102;50.906;6.972;2024-01-07T00:48:24;100849.41;;;5.86;81.10
54194;BME280;40102;50.906;6.972;2024-01-07T00:50:49;100864.41;;;5.88;81.02
54194;BME280;40102;50.906;6.972;2024-01-07T00:53:15;100847.78;;;5.82;81.09
54194;BME280;40102;50.906;6.972;2024-01-07T00:55:40;100848.69;;;5.81;81.08
54194;BME280;40102;50.906;6.972;2024-01-07T00:58:06;100862.56;;;5.91;80.94
54194;BME280;40102;50.906;6.972;2024-01-07T01:00:31;100864.41;;;5.88;81.07
54194;BME280;40102;50.906;6.972;2024-01-07T01:02:56;100857.56;;;5.80;80.93
54194;BME280;40102;50.906;6.972;2024-01-07T01:05:22;100856.72;;;5.80;81.22
54194;BME280;40102;50.906;6.972;2024-01-07T01:07:47;100858.44;;;5.81;80.95
54194;BME280;40102;50.906;6.972;2024-01-07T01:10:12;100861.00;;;5.84;81.17
54194;BME280;40102;50.906;6.972;2024-01-07T01:12:42;100859.31;;;5.81;80.95
54194;BME280;40102;50.906;6.972;2024-01-07T01:15:08;100871.47;;;5.89;81.03
54194;BME280;40102;50.906;6.972;2024-01-07T01:17:33;100868.84;;;5.87;81.06
54194;BME280;40102;50.906;6.972;2024-01-07T01:19:58;100860.34;;;5.77;80.95
54194;BME280;40102;50.906;6.972;2024-01-07T01:22:24;100870.09;;;5.77;81.10
54194;BME280;40102;50.906;6.972;2024-01-07T01:24:50;100890.19;;;5.84;80.83
54194;BME280;40102;50.906;6.972;2024-01-07T01:27:16;100886.72;;;5.82;80.76
54194;BME280;40102;50.906;6.972;2024-01-07T01:29:41;100874.56;;;5.75;80.73
54194;BME280;40102;50.906;6.972;2024-01-07T01:32:06;100887.59;;;5.82;80.94
54194;BME280;40102;50.906;6.972;2024-01-07T01:34:32;100885.00;;;5.81;80.91
54194;BME280;40102;50.906;6.972;2024-01-07T01:36:58;100885.94;;;5.78;80.97
54194;BME280;40102;50.906;6.972;2024-01-07T01:39:23;100886.72;;;5.82;80.83
54194;BME280;40102;50.906;6.972;2024-01-07T01:41:48;100892.03;;;5.82;80.86
54194;BME280;40102;50.906;6.972;2024-01-07T01:44:14;100893.75;;;5.83;80.62
54194;BME280;40102;50.906;6.972;2024-01-07T01:46:39;100891.16;;;5.81;80.82
54194;BME280;40102;50.906;6.972;2024-01-07T01:49:05;100889.53;;;5.77;80.57
54194;BME280;40102;50.906;6.972;2024-01-07T01:51:31;100891.09;;;5.83;80.79
54194;BME280;40102;50.906;6.972;2024-01-07T01:53:56;100892.19;;;5.77;81.01
54194;BME280;40102;50.906;6.972;2024-01-07T01:56:24;100898.41;;;5.76;81.11
54194;BME280;40102;50.906;6.972;2024-01-07T01:58:51;100894.88;;;5.76;81.02
54194;BME280;40102;50.906;6.972;2024-01-07T02:01:17;100891.38;;;5.75;81.04
54194;BME280;40102;50.906;6.972;2024-01-07T02:03:43;100899.13;;;5.81;81.17
54194;BME280;40102;50.906;6.972;2024-01-07T02:06:09;100881.81;;;5.70;81.19
54194;BME280;40102;50.906;6.972;2024-01-07T02:08:34;100892.44;;;5.70;80.92
54194;BME280;40102;50.906;6.972;2024-01-07T02:11:16;100906.31;;;5.78;81.14
54194;BME280;40102;50.906;6.972;2024-01-07T02:13:42;100909.78;;;5.80;81.11
54194;BME280;40102;50.906;6.972;2024-01-07T02:16:08;100916.78;;;5.82;81.20
54194;BME280;40102;50.906;6.972;2024-01-07T02:18:33;100921.13;;;5.85;81.09
54194;BME280;40102;50.906;6.972;2024-01-07T02:20:58;100921.19;;;5.83;81.39
54194;BME280;40102;50.906;6.972;2024-01-07T02:23:24;100913.28;;;5.82;81.25
54194;BME280;40102;50.906;6.972;2024-01-07T02:25:49;100913.22;;;5.83;80.98
54194;BME280;40102;50.906;6.972;2024-01-07T02:28:14;100922.81;;;5.88;80.90
54194;BME280;40102;50.906;6.972;2024-01-07T02:30:40;100915.97;;;5.80;80.87
54194;BME280;40102;50.906;6.972;2024-01-07T02:33:05;100921.03;;;5.88;80.85
54194;BME280;40102;50.906;6.972;2024-01-07T02:35:31;100920.22;;;5.86;80.67
54194;BME280;40102;50.906;6.972;2024-01-07T02:37:56;100917.72;;;5.81;80.60
54194;BME280;40102;50.906;6.972;2024-01-07T02:40:21;100928.13;;;5.88;80.68
54194;BME280;40102;50.906;6.972;2024-01-07T02:42:46;100925.53;;;5.86;80.07
54194;BME280;40102;50.906;6.972;2024-01-07T02:45:12;100930.00;;;5.84;80.43
54194;BME280;40102;50.906;6.972;2024-01-07T02:47:37;100945.88;;;5.85;80.63
54194;BME280;40102;50.906;6.972;2024-01-07T02:50:02;100931.78;;;5.83;80.57
54194;BME280;40102;50.906;6.972;2024-01-07T02:52:28;100928.47;;;5.77;80.73
54194;BME280;40102;50.906;6.972;2024-01-07T02:54:53;100929.19;;;5.82;80.79
54194;BME280;40102;50.906;6.972;2024-01-07T02:57:19;100931.84;;;5.82;80.82
54194;BME280;40102;50.906;6.972;2024-01-07T02:59:44;100940.78;;;5.79;80.86
54194;BME280;40102;50.906;6.972;2024-01-07T03:02:09;100933.69;;;5.80;80.89
54194;BME280;40102;50.906;6.972;2024-01-07T03:04:34;100938.28;;;5.75;81.02
54194;BME280;40102;50.906;6.972;2024-01-07T03:07:00;100940.88;;;5.76;81.16
54194;BME280;40102;50.906;6.972;2024-01-07T03:09:25;100928.91;;;5.63;81.34
54194;BME280;40102;50.906;6.972;2024-01-07T03:11:50;100946.38;;;5.70;81.27
54194;BME280;40102;50.906;6.972;2024-01-07T03:14:16;100937.59;;;5.68;81.45
54194;BME280;40102;50.906;6.972;2024-01-07T03:16:45;100951.59;;;5.73;81.31
54194;BME280;40102;50.906;6.972;2024-01-07T03:19:10;100936.97;;;5.60;81.59
54194;BME280;40102;50.906;6.972;2024-01-07T03:21:36;100955.22;;;5.71;81.64
54194;BME280;40102;50.906;6.972;2024-01-07T03:24:01;100950.81;;;5.70;81.70
54194;BME280;40102;50.906;6.972;2024-01-07T03:26:29;100953.38;;;5.73;81.71
54194;BME280;40102;50.906;6.972;2024-01-07T03:28:55;100963.19;;;5.71;81.70
54194;BME280;40102;50.906;6.972;2024-01-07T03:31:24;100951.75;;;5.69;81.71
54194;BME280;40102;50.906;6.972;2024-01-07T03:33:50;100953.66;;;5.64;81.90
54194;BME280;40102;50.906;6.972;2024-01-07T03:36:15;100964.13;;;5.68;81.75
54194;BME280;40102;50.906;6.972;2024-01-07T03:38:41;100958.00;;;5.66;81.60
54194;BME280;40102;50.906;6.972;2024-01-07T03:41:06;100967.53;;;5.73;81.69
54194;BME280;40102;50.906;6.972;2024-01-07T03:43:32;100956.22;;;5.67;81.80
54194;BME280;40102;50.906;6.972;2024-01-07T03:45:57;100950.91;;;5.67;81.52
54194;BME280;40102;50.906;6.972;2024-01-07T03:48:23;100958.84;;;5.68;81.68
54194;BME280;40102;50.906;6.972;2024-01-07T03:50:49;100957.09;;;5.67;81.61
54194;BME280;40102;50.906;6.972;2024-01-07T03:53:15;100959.81;;;5.66;81.73
54194;BME280;40102;50.906;6.972;2024-01-07T03:55:41;100953.72;;;5.62;81.59
54194;BME280;40102;50.906;6.972;2024-01-07T03:58:06;100971.38;;;5.63;81.76
54194;BME280;40102;50.906;6.972;2024-01-07T04:00:32;100967.03;;;5.61;81.70
54194;BME280;40102;50.906;6.972;2024-01-07T04:02:58;100971.38;;;5.63;81.82
54194;BME280;40102;50.906;6.972;2024-01-07T04:05:23;100963.56;;;5.59;81.61
54194;BME280;40102;50.906;6.972;2024-01-07T04:07:48;100972.41;;;5.59;81.62
54194;BME280;40102;50.906;6.972;2024-01-07T04:10:16;100975.03;;;5.59;81.92
54194;BME280;40102;50.906;6.972;2024-01-07T04:12:42;100965.59;;;5.50;81.75
54194;BME280;40102;50.906;6.972;2024-01-07T04:15:07;100983.06;;;5.58;81.90
54194;BME280;40102;50.906;6.972;2024-01-07T04:17:33;100966.50;;;5.49;81.80
54194;BME280;40102;50.906;6.972;2024-01-07T04:19:58;100962.16;;;5.47;81.91
54194;BME280;40102;50.906;6.972;2024-01-07T04:22:23;100985.72;;;5.58;81.59
54194;BME280;40102;50.906;6.972;2024-01-07T04:24:49;100990.91;;;5.61;82.14
54194;BME280;40102;50.906;6.972;2024-01-07T04:27:14;100979.56;;;5.56;81.78
54194;BME280;40102;50.906;6.972;2024-01-07T04:29:39;100993.44;;;5.65;82.04
54194;BME280;40102;50.906;6.972;2024-01-07T04:32:05;100991.78;;;5.61;81.75
54194;BME280;40102;50.906;6.972;2024-01-07T04:34:30;100977.84;;;5.54;81.92
54194;BME280;40102;50.906;6.972;2024-01-07T04:36:55;100980.41;;;5.58;81.71
54194;BME280;40102;50.906;6.972;2024-01-07T04:39:21;100980.50;;;5.54;81.78
54194;BME280;40102;50.906;6.972;2024-01-07T04:41:46;100991.94;;;5.57;81.77
54194;BME280;40102;50.906;6.972;2024-01-07T04:44:11;101003.31;;;5.60;81.89
54194;BME280;40102;50.906;6.972;2024-01-07T04:46:38;101004.91;;;5.66;82.05
54194;BME280;40102;50.906;6.972;2024-01-07T04:49:03;100999.78;;;5.60;82.06
54194;BME280;40102;50.906;6.972;2024-01-07T04:51:28;101007.56;;;5.66;81.96
54194;BME280;40102;50.906;6.972;2024-01-07T04:53:54;101014.63;;;5.67;81.97
54194;BME280;40102;50.906;6.972;2024-01-07T04:56:19;101007.63;;;5.64;81.83
54194;BME280;40102;50.906;6.972;2024-01-07T04:58:45;101015.53;;;5.66;81.96
54194;BME280;40102;50.906;6.972;2024-01-07T05:01:10;101019.19;;;5.62;81.87
54194;BME280;40102;50.906;6.972;2024-01-07T05:03:35;101016.53;;;5.62;82.04
54194;BME280;40102;50.906;6.972;2024-01-07T05:06:03;101013.06;;;5.60;82.23
54194;BME280;40102;50.906;6.972;2024-01-07T05:08:28;101027.16;;;5.62;82.36
54194;BME280;40102;50.906;6.972;2024-01-07T05:10:54;101019.38;;;5.56;82.46
54194;BME280;40102;50.906;6.972;2024-01-07T05:13:19;101037.00;;;5.58;82.29
54194;BME280;40102;50.906;6.972;2024-01-07T05:15:44;101031.91;;;5.50;82.29
54194;BME280;40102;50.906;6.972;2024-01-07T05:18:11;101035.34;;;5.54;82.55
54194;BME280;40102;50.906;6.972;2024-01-07T05:20:37;101047.66;;;5.57;82.49
54194;BME280;40102;50.906;6.972;2024-01-07T05:23:02;101042.47;;;5.52;82.54
54194;BME280;40102;50.906;6.972;2024-01-07T05:25:28;101050.31;;;5.57;82.30
54194;BME280;40102;50.906;6.972;2024-01-07T05:27:53;101052.91;;;5.58;82.26
54194;BME280;40102;50.906;6.972;2024-01-07T05:30:19;101043.31;;;5.54;81.87
54194;BME280;40102;50.906;6.972;2024-01-07T05:32:44;101043.53;;;5.46;81.85
54194;BME280;40102;50.906;6.972;2024-01-07T05:35:09;101052.22;;;5.51;82.30
54194;BME280;40102;50.906;6.972;2024-01-07T05:37:35;101043.63;;;5.43;82.27
54194;BME280;40102;50.906;6.972;2024-01-07T05:40:00;101063.72;;;5.52;82.25
54194;BME280;40102;50.906;6.972;2024-01-07T05:42:26;101057.53;;;5.51;81.96
54194;BME280;40102;50.906;6.972;2024-01-07T05:44:51;101062.03;;;5.49;81.85
54194;BME280;40102;50.906;6.972;2024-01-07T05:47:16;101071.66;;;5.52;81.56
54194;BME280;40102;50.906;6.972;2024-01-07T05:49:42;101070.06;;;5.46;81.00
54194;BME280;40102;50.906;6.972;2024-01-07T05:52:07;101076.28;;;5.45;81.11
54194;BME280;40102;50.906;6.972;2024-01-07T05:54:33;101071.84;;;5.46;80.78
54194;BME280;40102;50.906;6.972;2024-01-07T05:56:58;101081.41;;;5.51;80.78
54194;BME280;40102;50.906;6.972;2024-01-07T05:59:24;101070.03;;;5.48;80.27
54194;BME280;40102;50.906;6.972;2024-01-07T06:01:49;101075.41;;;5.45;80.21
54194;BME280;40102;50.906;6.972;2024-01-07T06:04:14;101064.84;;;5.43;80.17
54194;BME280;40102;50.906;6.972;2024-01-07T06:06:40;101075.41;;;5.45;80.20
54194;BME280;40102;50.906;6.972;2024-01-07T06:09:05;101081.69;;;5.42;79.98
54194;BME280;40102;50.906;6.972;2024-01-07T06:11:30;101092.22;;;5.45;80.02
54194;BME280;40102;50.906;6.972;2024-01-07T06:13:55;101097.56;;;5.44;79.98
54194;BME280;40102;50.906;6.972;2024-01-07T06:16:21;101098.44;;;5.44;79.66
54194;BME280;40102;50.906;6.972;2024-01-07T06:18:46;101095.84;;;5.41;80.01
54194;BME280;40102;50.906;6.972;2024-01-07T06:21:11;101099.34;;;5.43;80.18
54194;BME280;40102;50.906;6.972;2024-01-07T06:23:37;101097.72;;;5.38;80.43
54194;BME280;40102;50.906;6.972;2024-01-07T06:26:03;101116.09;;;5.45;80.40
54194;BME280;40102;50.906;6.972;2024-01-07T06:28:29;101108.25;;;5.41;80.46
54194;BME280;40102;50.906;6.972;2024-01-07T06:30:54;101120.47;;;5.46;80.33
54194;BME280;40102;50.906;6.972;2024-01-07T06:33:19;101126.69;;;5.45;80.43
54194;BME280;40102;50.906;6.972;2024-01-07T06:35:46;101105.66;;;5.39;80.42
54194;BME280;40102;50.906;6.972;2024-01-07T06:38:11;101127.69;;;5.41;80.10
54194;BME280;40102;50.906;6.972;2024-01-07T06:40:36;101132.00;;;5.45;79.83
54194;BME280;40102;50.906;6.972;2024-01-07T06:43:02;101120.00;;;5.32;79.36
54194;BME280;40102;50.906;6.972;2024-01-07T06:45:27;101144.59;;;5.37;79.56
54194;BME280;40102;50.906;6.972;2024-01-07T06:47:52;101148.97;;;5.40;79.79
54194;BME280;40102;50.906;6.972;2024-01-07T06:50:18;101137.53;;;5.38;79.63
54194;BME280;40102;50.906;6.972;2024-01-07T06:52:45;101155.06;;;5.43;79.54
54194;BME280;40102;50.906;6.972;2024-01-07T06:55:10;101155.88;;;5.45;79.35
54194;BME280;40102;50.906;6.972;2024-01-07T06:57:35;101162.19;;;5.41;79.14
54194;BME280;40102;50.906;6.972;2024-01-07T07:00:01;101156.91;;;5.40;79.17
54194;BME280;40102;50.906;6.972;2024-01-07T07:02:27;101163.97;;;5.41;79.27
54194;BME280;40102;50.906;6.972;2024-01-07T07:04:53;101170.00;;;5.46;79.15
54194;BME280;40102;50.906;6.972;2024-01-07T07:07:18;101168.34;;;5.42;78.96
54194;BME280;40102;50.906;6.972;2024-01-07T07:09:43;101155.38;;;5.31;79.15
54194;BME280;40102;50.906;6.972;2024-01-07T07:12:09;101172.88;;;5.38;79.32
54194;BME280;40102;50.906;6.972;2024-01-07T07:14:34;101183.41;;;5.41;78.87
54194;BME280;40102;50.906;6.972;2024-01-07T07:17:00;101177.44;;;5.33;79.11
54194;BME280;40102;50.906;6.972;2024-01-07T07:19:25;101173.09;;;5.31;79.04
54194;BME280;40102;50.906;6.972;2024-01-07T07:21:50;101189.63;;;5.40;78.71
54194;BME280;40102;50.906;6.972;2024-01-07T07:24:16;101181.03;;;5.31;78.85
54194;BME280;40102;50.906;6.972;2024-01-07T07:26:41;101194.97;;;5.39;78.80
54194;BME280;40102;50.906;6.972;2024-01-07T07:29:08;101186.31;;;5.32;78.73
54194;BME280;40102;50.906;6.972;2024-01-07T07:31:35;101196.03;;;5.32;78.70
54194;BME280;40102;50.906;6.972;2024-01-07T07:34:03;101194.38;;;5.28;78.48
54194;BME280;40102;50.906;6.972;2024-01-07T07:36:28;101197.91;;;5.28;78.57
54194;BME280;40102;50.906;6.972;2024-01-07T07:38:54;101190.03;;;5.25;78.64
54194;BME280;40102;50.906;6.972;2024-01-07T07:41:19;101203.28;;;5.25;77.97
54194;BME280;40102;50.906;6.972;2024-01-07T07:43:45;101220.72;;;5.35;77.94
54194;BME280;40102;50.906;6.972;2024-01-07T07:46:10;101213.03;;;5.25;78.09
54194;BME280;40102;50.906;6.972;2024-01-07T07:48:37;101221.78;;;5.28;77.31
54194;BME280;40102;50.906;6.972;2024-01-07T07:51:02;101219.09;;;5.30;77.71
54194;BME280;40102;50.906;6.972;2024-01-07T07:53:28;101221.81;;;5.27;77.73
54194;BME280;40102;50.906;6.972;2024-01-07T07:55:53;101216.63;;;5.22;77.52
54194;BME280;40102;50.906;6.972;2024-01-07T07:58:18;101242.88;;;5.33;77.64
54194;BME280;40102;50.906;6.972;2024-01-07T08:00:45;101244.59;;;5.35;77.79
54194;BME280;40102;50.906;6.972;2024-01-07T08:03:10;101253.41;;;5.36;77.79
54194;BME280;40102;50.906;6.972;2024-01-07T08:05:35;101236.94;;;5.23;77.43
54194;BME280;40102;50.906;6.972;2024-01-07T08:08:01;101215.16;;;5.12;77.78
54194;BME280;40102;50.906;6.972;2024-01-07T08:10:26;101239.56;;;5.25;77.64
54194;BME280;40102;50.906;6.972;2024-01-07T08:12:53;101245.06;;;5.18;77.78
54194;BME280;40102;50.906;6.972;2024-01-07T08:15:19;101248.56;;;5.19;77.76
54194;BME280;40102;50.906;6.972;2024-01-07T08:17:44;101254.59;;;5.24;77.76
54194;BME280;40102;50.906;6.972;2024-01-07T08:20:10;101266.78;;;5.31;77.54
54194;BME280;40102;50.906;6.972;2024-01-07T08:22:35;101268.50;;;5.34;77.61
54194;BME280;40102;50.906;6.972;2024-01-07T08:25:01;101256.44;;;5.20;77.75
54194;BME280;40102;50.906;6.972;2024-01-07T08:27:27;101265.16;;;5.26;77.48
54194;BME280;40102;50.906;6.972;2024-01-07T08:29:52;101285.38;;;5.31;77.38
54194;BME280;40102;50.906;6.972;2024-01-07T08:32:18;101287.19;;;5.29;77.50
54194;BME280;40102;50.906;6.972;2024-01-07T08:34:44;101304.00;;;5.28;77.57
54194;BME280;40102;50.906;6.972;2024-01-07T08:37:10;101282.44;;;5.08;77.48
54194;BME280;40102;50.906;6.972;2024-01-07T08:39:35;101296.38;;;5.16;78.12
54194;BME280;40102;50.906;6.972;2024-01-07T08:42:01;101292.19;;;5.07;78.40
54194;BME280;40102;50.906;6.972;2024-01-07T08:44:26;101313.00;;;5.57;100.00
54194;BME280;40102;50.906;6.972;2024-01-07T08:46:52;101310.66;;;6.43;100.00
54194;BME280;40102;50.906;6.972;2024-01-07T08:49:17;101318.56;;;7.04;94.04
54194;BME280;40102;50.906;6.972;2024-01-07T08:51:42;101312.31;;;7.59;83.14
54194;BME280;40102;50.906;6.972;2024-01-07T08:54:08;101316.41;;;7.94;77.33
54194;BME280;40102;50.906;6.972;2024-01-07T08:56:33;101319.81;;;8.23;76.36
54194;BME280;40102;50.906;6.972;2024-01-07T08:58:59;101319.81;;;8.23;73.18
54194;BME280;40102;50.906;6.972;2024-01-07T09:01:24;101315.09;;;7.81;69.52
54194;BME280;40102;50.906;6.972;2024-01-07T09:03:50;101330.53;;;7.45;69.28
54194;BME280;40102;50.906;6.972;2024-01-07T09:06:15;101320.63;;;6.94;69.98
54194;BME280;40102;50.906;6.972;2024-01-07T09:08:40;101325.97;;;6.65;71.44
54194;BME280;40102;50.906;6.972;2024-01-07T09:11:07;101342.69;;;6.39;72.66
54194;BME280;40102;50.906;6.972;2024-01-07T09:13:36;101338.09;;;6.13;73.61
54194;BME280;40102;50.906;6.972;2024-01-07T09:16:01;101334.16;;;5.95;74.72
54194;BME280;40102;50.906;6.972;2024-01-07T09:18:27;101345.81;;;5.88;75.20
54194;BME280;40102;50.906;6.972;2024-01-07T09:20:52;101335.56;;;5.74;76.17
54194;BME280;40102;50.906;6.972;2024-01-07T09:23:17;101345.34;;;5.72;76.42
54194;BME280;40102;50.906;6.972;2024-01-07T09:25:43;101349.09;;;5.64;77.07
54194;BME280;40102;50.906;6.972;2024-01-07T09:28:08;101341.44;;;5.51;77.30
54194;BME280;40102;50.906;6.972;2024-01-07T09:30:34;101336.34;;;5.44;77.20
54194;BME280;40102;50.906;6.972;2024-01-07T09:32:59;101369.66;;;5.56;77.46
54194;BME280;40102;50.906;6.972;2024-01-07T09:35:24;101329.47;;;5.35;77.67
54194;BME280;40102;50.906;6.972;2024-01-07T09:37:50;101343.53;;;5.39;77.48
54194;BME280;40102;50.906;6.972;2024-01-07T09:40:18;101368.97;;;5.47;77.69
54194;BME280;40102;50.906;6.972;2024-01-07T09:42:47;101371.66;;;5.46;77.81
54194;BME280;40102;50.906;6.972;2024-01-07T09:45:13;101351.53;;;5.37;77.71
54194;BME280;40102;50.906;6.972;2024-01-07T09:47:44;101370.09;;;5.37;77.46
54194;BME280;40102;50.906;6.972;2024-01-07T09:50:10;101371.91;;;5.35;77.61
54194;BME280;40102;50.906;6.972;2024-01-07T09:52:38;101373.72;;;5.33;77.77
54194;BME280;40102;50.906;6.972;2024-01-07T09:55:05;101371.00;;;5.36;77.68
54194;BME280;40102;50.906;6.972;2024-01-07T09:57:34;101380.72;;;5.37;77.51
54194;BME280;40102;50.906;6.972;2024-01-07T10:00:00;101375.50;;;5.33;77.22
54194;BME280;40102;50.906;6.972;2024-01-07T10:02:26;101374.59;;;5.34;76.90
54194;BME280;40102;50.906;6.972;2024-01-07T10:04:51;101379.16;;;5.29;77.03
54194;BME280;40102;50.906;6.972;2024-01-07T10:07:16;101383.50;;;5.31;77.12
54194;BME280;40102;50.906;6.972;2024-01-07T10:09:43;101389.69;;;5.32;76.85
54194;BME280;40102;50.906;6.972;2024-01-07T10:12:08;101384.41;;;5.30;76.88
54194;BME280;40102;50.906;6.972;2024-01-07T10:14:34;101391.50;;;5.30;75.98
54194;BME280;40102;50.906;6.972;2024-01-07T10:17:00;101385.59;;;5.18;75.04
54194;BME280;40102;50.906;6.972;2024-01-07T10:19:25;101391.06;;;5.12;75.03
54194;BME280;40102;50.906;6.972;2024-01-07T10:22:00;101388.41;;;5.12;75.53
54194;BME280;40102;50.906;6.972;2024-01-07T10:24:26;101395.44;;;5.13;75.61
54194;BME280;40102;50.906;6.972;2024-01-07T10:26:51;101386.59;;;5.14;75.68
54194;BME280;40102;50.906;6.972;2024-01-07T10:29:17;101389.19;;;5.16;75.85
54194;BME280;40102;50.906;6.972;2024-01-07T10:31:43;101393.53;;;5.20;75.79
54194;BME280;40102;50.906;6.972;2024-01-07T10:34:13;101392.66;;;5.19;75.43
54194;BME280;40102;50.906;6.972;2024-01-07T10:36:39;101397.91;;;5.21;75.48
54194;BME280;40102;50.906;6.972;2024-01-07T10:39:06;101384.94;;;5.09;75.17
54194;BME280;40102;50.906;6.972;2024-01-07T10:41:33;101387.56;;;5.10;75.10
54194;BME280;40102;50.906;6.972;2024-01-07T10:44:02;101392.69;;;5.18;74.82
54194;BME280;40102;50.906;6.972;2024-01-07T10:46:28;101403.19;;;5.21;74.64
54194;BME280;40102;50.906;6.972;2024-01-07T10:48:59;101404.25;;;5.15;74.34
54194;BME280;40102;50.906;6.972;2024-01-07T10:51:27;101406.94;;;5.14;74.58
54194;BME280;40102;50.906;6.972;2024-01-07T10:53:55;101408.69;;;5.15;74.63
54194;BME280;40102;50.906;6.972;2024-01-07T10:56:23;101404.38;;;5.09;74.55
54194;BME280;40102;50.906;6.972;2024-01-07T10:58:52;101418.41;;;5.14;74.65
54194;BME280;40102;50.906;6.972;2024-01-07T11:01:18;101407.84;;;5.13;74.45
54194;BME280;40102;50.906;6.972;2024-01-07T11:03:54;101407.91;;;5.10;74.18
54194;BME280;40102;50.906;6.972;2024-01-07T11:06:31;101411.41;;;5.12;74.56
54194;BME280;40102;50.906;6.972;2024-01-07T11:09:03;101413.13;;;5.13;75.83
54194;BME280;40102;50.906;6.972;2024-01-07T11:11:40;101417.53;;;5.14;77.47
54194;BME280;40102;50.906;6.972;2024-01-07T11:14:42;101414.78;;;5.18;78.22
54194;BME280;40102;50.906;6.972;2024-01-07T11:17:11;101413.09;;;5.14;78.10
54194;BME280;40102;50.906;6.972;2024-01-07T11:19:36;101428.06;;;5.17;77.93
54194;BME280;40102;50.906;6.972;2024-01-07T11:22:27;101421.94;;;5.15;77.22
54194;BME280;40102;50.906;6.972;2024-01-07T11:24:56;101426.50;;;5.08;76.37
54194;BME280;40102;50.906;6.972;2024-01-07T11:27:23;101428.25;;;5.09;76.16
54194;BME280;40102;50.906;6.972;2024-01-07T11:29:55;101434.31;;;5.14;75.88
54194;BME280;40102;50.906;6.972;2024-01-07T11:32:22;101437.84;;;5.15;75.31
54194;BME280;40102;50.906;6.972;2024-01-07T11:34:50;101433.44;;;5.14;75.13
54194;BME280;40102;50.906;6.972;2024-01-07T11:37:18;101429.84;;;5.16;74.84
54194;BME280;40102;50.906;6.972;2024-01-07T11:39:47;101432.63;;;5.12;74.41
54194;BME280;40102;50.906;6.972;2024-01-07T11:42:13;101431.78;;;5.10;74.49
54194;BME280;40102;50.906;6.972;2024-01-07T11:44:48;101442.34;;;5.11;74.37
54194;BME280;40102;50.906;6.972;2024-01-07T11:47:15;101431.78;;;5.10;74.37
54194;BME280;40102;50.906;6.972;2024-01-07T11:49:41;101431.00;;;5.05;74.10
54194;BME280;40102;50.906;6.972;2024-01-07T11:52:06;101431.06;;;5.02;74.07
54194;BME280;40102;50.906;6.972;2024-01-07T11:54:33;101440.59;;;5.10;74.13
54194;BME280;40102;50.906;6.972;2024-01-07T11:56:59;101431.97;;;5.01;73.66
54194;BME280;40102;50.906;6.972;2024-01-07T11:59:24;101444.22;;;5.06;73.54
54194;BME280;40102;50.906;6.972;2024-01-07T12:01:49;101440.69;;;5.06;73.66
54194;BME280;40102;50.906;6.972;2024-01-07T12:04:14;101437.25;;;5.02;73.57
54194;BME280;40102;50.906;6.972;2024-01-07T12:06:40;101442.44;;;5.07;73.53
54194;BME280;40102;50.906;6.972;2024-01-07T12:09:05;101445.09;;;5.07;73.49
54194;BME280;40102;50.906;6.972;2024-01-07T12:11:31;101451.28;;;5.07;73.60
54194;BME280;40102;50.906;6.972;2024-01-07T12:13:57;101452.16;;;5.08;73.37
54194;BME280;40102;50.906;6.972;2024-01-07T12:16:23;101441.56;;;5.06;73.17
54194;BME280;40102;50.906;6.972;2024-01-07T12:18:48;101446.91;;;5.05;73.06
54194;BME280;40102;50.906;6.972;2024-01-07T12:21:19;101444.31;;;5.02;72.76
54194;BME280;40102;50.906;6.972;2024-01-07T12:23:50;101457.44;;;5.08;72.49
54194;BME280;40102;50.906;6.972;2024-01-07T12:26:16;101452.25;;;5.03;72.55
54194;BME280;40102;50.906;6.972;2024-01-07T12:28:42;101455.69;;;5.07;72.52
54194;BME280;40102;50.906;6.972;2024-01-07T12:31:08;101458.34;;;5.07;72.26
54194;BME280;40102;50.906;6.972;2024-01-07T12:33:34;101453.13;;;5.04;71.95
54194;BME280;40102;50.906;6.972;2024-01-07T12:36:01;101461.06;;;5.04;71.94
54194;BME280;40102;50.906;6.972;2024-01-07T12:38:27;101457.56;;;5.02;72.11
54194;BME280;40102;50.906;6.972;2024-01-07T12:40:53;101461.06;;;5.04;71.91
54194;BME280;40102;50.906;6.972;2024-01-07T12:43:19;101449.75;;;4.96;71.73
54194;BME280;40102;50.906;6.972;2024-01-07T12:45:44;101459.38;;;5.00;71.76
54194;BME280;40102;50.906;6.972;2024-01-07T12:48:11;101459.47;;;4.95;71.89
54194;BME280;40102;50.906;6.972;2024-01-07T12:50:38;101461.38;;;4.88;71.67
54194;BME280;40102;50.906;6.972;2024-01-07T12:53:03;101470.16;;;4.92;71.92
54194;BME280;40102;50.906;6.972;2024-01-07T12:55:29;101466.69;;;4.88;72.21